createdAt,value
2018-03-29T00:00:38.243Z,3.3
2018-03-29T00:01:39.883Z,3.3
2018-03-29T00:02:41.530Z,3.4
2018-03-29T00:03:43.172Z,3.3
2018-03-29T00:04:44.830Z,3.4
2018-03-29T00:05:46.479Z,3.3
2018-03-29T00:06:48.118Z,3.4
2018-03-29T00:07:49.783Z,3.3
2018-03-29T00:08:51.432Z,3.4
2018-03-29T00:09:53.095Z,3.4
2018-03-29T00:10:54.746Z,3.4
2018-03-29T00:11:56.396Z,3.3
2018-03-29T00:12:58.036Z,3.4
2018-03-29T00:13:59.685Z,3.4
2018-03-29T00:15:01.336Z,3.4
2018-03-29T00:16:02.984Z,3.5
2018-03-29T00:17:04.624Z,3.4
2018-03-29T00:18:06.301Z,3.4
2018-03-29T00:19:07.967Z,3.4
2018-03-29T00:20:09.615Z,3.2
2018-03-29T00:21:12.026Z,3.3
2018-03-29T00:22:13.688Z,3.3
2018-03-29T00:23:15.339Z,3.3
2018-03-29T00:24:16.998Z,3.3
2018-03-29T00:25:18.694Z,3.3
2018-03-29T00:26:20.300Z,3.2
2018-03-29T00:27:21.946Z,3.3
2018-03-29T00:28:23.598Z,3.3
2018-03-29T00:29:25.240Z,3.4
2018-03-29T00:30:26.900Z,3.3
2018-03-29T00:31:28.542Z,3.2
2018-03-29T00:32:30.190Z,3.3
2018-03-29T00:33:31.866Z,3.4
2018-03-29T00:34:33.514Z,3.3
2018-03-29T00:35:36.032Z,3.3
2018-03-29T00:36:37.684Z,3.3
2018-03-29T00:37:39.336Z,3.3
2018-03-29T00:38:40.985Z,3.3
2018-03-29T00:39:42.628Z,3.3
2018-03-29T00:40:44.270Z,3.4
2018-03-29T00:41:45.917Z,3.2
2018-03-29T00:42:47.566Z,3.2
2018-03-29T00:43:49.214Z,3.3
2018-03-29T00:44:50.856Z,3.3
2018-03-29T00:45:52.503Z,3.2
2018-03-29T00:46:54.159Z,3.2
2018-03-29T00:47:55.802Z,3.2
2018-03-29T00:48:57.453Z,3.2
2018-03-29T00:49:59.095Z,3.2
2018-03-29T00:51:00.751Z,3.2
2018-03-29T00:52:02.401Z,3.1
2018-03-29T00:53:04.063Z,3.1
2018-03-29T00:54:05.695Z,3.1
2018-03-29T00:55:07.350Z,3.1
2018-03-29T00:56:08.996Z,3.2
2018-03-29T00:57:10.642Z,3.2
2018-03-29T00:58:12.305Z,3.2
2018-03-29T00:59:13.947Z,3.2
2018-03-29T01:00:15.590Z,3.2
2018-03-29T01:01:17.250Z,3.2
2018-03-29T01:02:18.883Z,3.2
2018-03-29T01:03:20.526Z,3.2
2018-03-29T01:04:22.174Z,3.2
2018-03-29T01:05:23.839Z,3.2
2018-03-29T01:06:25.488Z,3.2
2018-03-29T01:07:27.138Z,3.2
2018-03-29T01:08:28.783Z,3.2
2018-03-29T01:09:30.433Z,3.2
2018-03-29T01:10:32.083Z,3.2
2018-03-29T01:11:33.745Z,3.2
2018-03-29T01:12:35.389Z,3.3
2018-03-29T01:13:37.039Z,3.2
2018-03-29T01:14:38.689Z,3.3
2018-03-29T01:15:40.352Z,3.2
2018-03-29T01:16:41.987Z,3.2
2018-03-29T01:17:43.640Z,3.2
2018-03-29T01:18:45.311Z,3.2
2018-03-29T01:19:46.960Z,3.2
2018-03-29T01:20:48.588Z,3.2
2018-03-29T01:21:50.242Z,3.2
2018-03-29T01:22:51.886Z,3.3
2018-03-29T01:23:53.535Z,3.3
2018-03-29T01:24:55.180Z,3.4
2018-03-29T01:25:56.828Z,3.3
2018-03-29T01:26:58.491Z,3.3
2018-03-29T01:28:00.138Z,3.3
2018-03-29T01:29:01.797Z,3.3
2018-03-29T01:30:03.440Z,3.2
2018-03-29T01:31:05.095Z,3.2
2018-03-29T01:32:06.761Z,3.2
2018-03-29T01:33:08.410Z,3.2
2018-03-29T01:34:10.061Z,3.2
2018-03-29T01:35:11.703Z,3.2
2018-03-29T01:36:13.354Z,3.3
2018-03-29T01:37:15.011Z,3.4
2018-03-29T01:38:16.646Z,3.4
2018-03-29T01:39:18.291Z,3.3
2018-03-29T01:40:19.940Z,3.3
2018-03-29T01:41:21.590Z,3.4
2018-03-29T01:42:23.274Z,3.4
2018-03-29T01:43:24.914Z,3.4
2018-03-29T01:44:26.572Z,3.3
2018-03-29T01:45:28.222Z,3.4
2018-03-29T01:46:29.868Z,3.4
2018-03-29T01:47:31.509Z,3.3
2018-03-29T01:48:33.160Z,3.4
2018-03-29T01:49:34.804Z,3.4
2018-03-29T01:50:36.457Z,3.4
2018-03-29T01:51:38.108Z,3.2
2018-03-29T01:52:39.760Z,3.2
2018-03-29T01:53:41.403Z,3.2
2018-03-29T01:54:43.052Z,3.0
2018-03-29T01:55:44.703Z,2.9
2018-03-29T02:02:14.343Z,2.6
2018-03-29T02:03:15.990Z,2.8
2018-03-29T02:05:07.795Z,2.7
2018-03-29T02:06:09.434Z,2.8
2018-03-29T02:08:01.287Z,2.6
2018-03-29T02:09:02.916Z,2.9
2018-03-29T02:10:04.578Z,2.8
2018-03-29T02:11:06.217Z,2.9
2018-03-29T02:12:07.864Z,2.9
2018-03-29T02:13:09.520Z,2.9
2018-03-29T02:14:11.171Z,2.9
2018-03-29T02:15:12.815Z,2.9
2018-03-29T02:16:14.464Z,2.9
2018-03-29T02:17:16.113Z,2.9
2018-03-29T02:18:17.759Z,2.9
2018-03-29T02:19:19.402Z,2.9
2018-03-29T02:20:21.051Z,2.9
2018-03-29T02:21:22.850Z,2.9
2018-03-29T02:22:24.496Z,2.9
2018-03-29T02:23:26.136Z,2.8
2018-03-29T02:24:27.805Z,2.9
2018-03-29T02:25:29.438Z,2.6
2018-03-29T02:26:31.082Z,2.9
2018-03-29T02:27:32.733Z,2.9
2018-03-29T02:28:34.377Z,2.9
2018-03-29T02:29:36.022Z,2.9
2018-03-29T02:30:37.663Z,2.5
2018-03-29T02:31:39.307Z,2.9
2018-03-29T02:32:40.956Z,2.9
2018-03-29T02:33:42.595Z,2.8
2018-03-29T02:34:44.242Z,2.9
2018-03-29T02:35:45.896Z,3.0
2018-03-29T02:36:47.539Z,3.0
2018-03-29T02:37:49.193Z,2.8
2018-03-29T02:38:50.832Z,2.9
2018-03-29T02:39:52.483Z,2.9
2018-03-29T02:40:54.113Z,2.9
2018-03-29T02:41:55.772Z,2.9
2018-03-29T02:42:57.418Z,2.9
2018-03-29T02:43:59.068Z,2.9
2018-03-29T02:45:00.717Z,2.9
2018-03-29T02:46:02.357Z,2.9
2018-03-29T02:47:04.007Z,2.8
2018-03-29T02:48:05.658Z,2.9
2018-03-29T02:49:07.302Z,2.9
2018-03-29T02:50:08.961Z,3.0
2018-03-29T02:51:10.604Z,2.9
2018-03-29T02:52:12.262Z,2.8
2018-03-29T02:53:13.894Z,2.9
2018-03-29T02:54:15.534Z,2.9
2018-03-29T02:55:17.185Z,2.9
2018-03-29T02:56:18.840Z,2.8
2018-03-29T02:57:20.487Z,2.8
2018-03-29T02:58:22.136Z,2.8
2018-03-29T02:59:23.795Z,2.9
2018-03-29T03:00:25.443Z,2.9
2018-03-29T03:01:27.051Z,2.8
2018-03-29T03:02:28.695Z,2.9
2018-03-29T03:03:30.348Z,2.8
2018-03-29T03:04:31.987Z,2.9
2018-03-29T03:05:33.644Z,2.8
2018-03-29T03:06:35.290Z,2.7
2018-03-29T03:07:36.936Z,2.9
2018-03-29T03:08:38.582Z,2.8
2018-03-29T03:09:40.228Z,2.8
2018-03-29T03:10:41.881Z,2.9
2018-03-29T03:11:43.524Z,2.8
2018-03-29T03:12:45.173Z,2.7
2018-03-29T03:13:46.822Z,2.8
2018-03-29T03:14:48.467Z,2.9
2018-03-29T03:15:50.115Z,2.7
2018-03-29T03:16:51.765Z,2.7
2018-03-29T03:17:53.482Z,2.8
2018-03-29T03:18:55.128Z,2.7
2018-03-29T03:19:56.781Z,2.7
2018-03-29T03:20:58.496Z,2.7
2018-03-29T03:22:00.140Z,2.7
2018-03-29T03:23:01.849Z,2.7
2018-03-29T03:24:03.445Z,2.7
2018-03-29T03:25:05.093Z,2.7
2018-03-29T03:26:06.748Z,2.8
2018-03-29T03:27:08.388Z,2.7
2018-03-29T03:28:10.034Z,2.7
2018-03-29T03:29:11.686Z,2.7
2018-03-29T03:30:13.327Z,2.9
2018-03-29T03:31:14.986Z,2.7
2018-03-29T03:32:16.640Z,2.8
2018-03-29T03:33:18.924Z,2.6
2018-03-29T03:34:20.560Z,2.7
2018-03-29T03:35:22.218Z,2.8
2018-03-29T03:36:23.868Z,2.7
2018-03-29T03:37:25.519Z,2.6
2018-03-29T03:38:27.262Z,2.8
2018-03-29T03:39:28.919Z,2.8
2018-03-29T03:40:30.578Z,2.7
2018-03-29T03:41:32.228Z,2.5
2018-03-29T03:42:33.880Z,2.7
2018-03-29T03:43:35.520Z,2.7
2018-03-29T03:44:37.178Z,2.7
2018-03-29T03:45:38.816Z,2.7
2018-03-29T03:46:40.514Z,2.8
2018-03-29T03:47:42.184Z,2.7
2018-03-29T03:48:43.822Z,2.7
2018-03-29T03:49:45.468Z,2.8
2018-03-29T03:50:47.104Z,2.8
2018-03-29T03:51:48.761Z,2.8
2018-03-29T03:52:50.408Z,2.8
2018-03-29T03:53:52.054Z,2.8
2018-03-29T03:54:53.697Z,2.8
2018-03-29T03:55:55.361Z,2.8
2018-03-29T03:56:56.997Z,2.7
2018-03-29T03:57:58.638Z,2.6
2018-03-29T03:59:00.283Z,2.7
2018-03-29T04:00:01.937Z,2.7
2018-03-29T04:01:03.587Z,2.7
2018-03-29T04:02:05.231Z,2.7
2018-03-29T04:03:06.945Z,2.8
2018-03-29T04:04:08.585Z,2.7
2018-03-29T04:05:10.232Z,2.8
2018-03-29T04:06:11.878Z,2.8
2018-03-29T04:07:13.533Z,2.7
2018-03-29T04:08:15.176Z,2.8
2018-03-29T04:09:16.826Z,2.8
2018-03-29T04:10:18.471Z,2.8
2018-03-29T04:11:20.125Z,2.7
2018-03-29T04:12:21.765Z,2.9
2018-03-29T04:13:23.587Z,2.7
2018-03-29T04:14:25.236Z,2.7
2018-03-29T04:15:26.883Z,2.8
2018-03-29T04:16:28.530Z,2.8
2018-03-29T04:17:30.176Z,2.7
2018-03-29T04:18:31.820Z,2.7
2018-03-29T04:19:33.526Z,2.8
2018-03-29T04:20:35.140Z,2.7
2018-03-29T04:21:36.785Z,2.7
2018-03-29T04:22:38.456Z,2.8
2018-03-29T04:23:40.102Z,2.8
2018-03-29T04:24:41.764Z,2.7
2018-03-29T04:25:43.407Z,2.6
2018-03-29T04:26:45.060Z,2.7
2018-03-29T04:27:46.708Z,2.7
2018-03-29T04:28:48.359Z,2.7
2018-03-29T04:29:50.009Z,2.7
2018-03-29T04:30:51.650Z,2.7
2018-03-29T04:31:53.296Z,2.7
2018-03-29T04:32:54.947Z,2.7
2018-03-29T04:33:56.601Z,2.7
2018-03-29T04:34:58.253Z,2.7
2018-03-29T04:35:59.912Z,2.7
2018-03-29T04:37:01.559Z,2.7
2018-03-29T04:38:03.202Z,2.7
2018-03-29T04:39:04.849Z,2.7
2018-03-29T04:40:06.502Z,2.6
2018-03-29T04:41:08.137Z,2.7
2018-03-29T04:42:09.774Z,2.7
2018-03-29T04:43:11.438Z,2.7
2018-03-29T04:44:13.075Z,2.7
2018-03-29T04:45:14.731Z,2.7
2018-03-29T04:46:16.381Z,2.7
2018-03-29T04:47:18.026Z,2.8
2018-03-29T04:48:19.675Z,2.7
2018-03-29T04:49:21.327Z,2.7
2018-03-29T04:50:22.981Z,2.8
2018-03-29T04:51:24.639Z,2.7
2018-03-29T04:52:26.349Z,2.7
2018-03-29T04:53:27.987Z,2.7
2018-03-29T04:54:29.638Z,2.7
2018-03-29T04:55:31.319Z,2.7
2018-03-29T04:56:32.951Z,2.7
2018-03-29T04:57:34.591Z,2.7
2018-03-29T04:58:36.245Z,2.7
2018-03-29T04:59:37.891Z,2.8
2018-03-29T05:00:39.540Z,2.7
2018-03-29T05:01:41.190Z,2.7
2018-03-29T05:02:42.840Z,2.8
2018-03-29T05:03:44.484Z,2.7
2018-03-29T05:04:46.138Z,2.8
2018-03-29T05:05:47.790Z,2.7
2018-03-29T05:06:49.439Z,2.8
2018-03-29T05:07:51.093Z,2.7
2018-03-29T05:08:52.742Z,2.7
2018-03-29T05:09:54.396Z,2.6
2018-03-29T05:10:56.041Z,2.6
2018-03-29T05:11:57.686Z,2.7
2018-03-29T05:12:59.327Z,2.7
2018-03-29T05:14:00.970Z,2.7
2018-03-29T05:15:02.633Z,2.7
2018-03-29T05:16:04.283Z,2.6
2018-03-29T05:17:05.932Z,2.6
2018-03-29T05:18:07.581Z,2.5
2018-03-29T05:19:09.236Z,2.5
2018-03-29T05:20:10.889Z,2.4
2018-03-29T05:21:12.553Z,2.4
2018-03-29T05:22:14.819Z,2.4
2018-03-29T05:23:16.476Z,2.4
2018-03-29T05:24:18.122Z,2.4
2018-03-29T05:25:19.780Z,2.7
2018-03-29T05:26:21.432Z,2.7
2018-03-29T05:27:23.089Z,2.8
2018-03-29T05:28:24.736Z,2.6
2018-03-29T05:29:26.392Z,2.5
2018-03-29T05:30:28.042Z,2.5
2018-03-29T05:31:29.806Z,2.5
2018-03-29T05:32:31.453Z,2.3
2018-03-29T05:33:33.106Z,2.3
2018-03-29T05:34:34.760Z,2.3
2018-03-29T05:35:36.401Z,2.1
2018-03-29T05:36:38.060Z,2.2
2018-03-29T05:37:39.705Z,2.3
2018-03-29T05:38:41.359Z,2.1
2018-03-29T05:39:43.018Z,2.3
2018-03-29T05:40:44.678Z,2.3
2018-03-29T05:41:46.326Z,2.2
2018-03-29T05:42:47.980Z,2.3
2018-03-29T05:43:49.630Z,2.4
2018-03-29T05:44:51.292Z,2.4
2018-03-29T05:45:53.024Z,2.5
2018-03-29T05:46:54.688Z,2.6
2018-03-29T05:47:56.330Z,2.7
2018-03-29T05:48:57.981Z,2.7
2018-03-29T05:49:59.637Z,2.7
2018-03-29T05:51:01.282Z,2.8
2018-03-29T05:52:02.938Z,2.7
2018-03-29T05:53:04.596Z,2.8
2018-03-29T05:54:06.243Z,2.7
2018-03-29T05:55:07.904Z,2.9
2018-03-29T06:01:40.555Z,2.8
2018-03-29T06:02:42.204Z,2.9
2018-03-29T06:03:43.858Z,3.0
2018-03-29T06:04:45.516Z,2.9
2018-03-29T06:05:47.169Z,3.1
2018-03-29T06:06:48.813Z,3.1
2018-03-29T06:07:50.566Z,3.0
2018-03-29T06:08:52.221Z,3.1
2018-03-29T06:09:53.863Z,3.2
2018-03-29T06:10:55.519Z,3.2
2018-03-29T06:11:57.176Z,3.2
2018-03-29T06:12:58.828Z,3.4
2018-03-29T06:14:00.478Z,3.3
2018-03-29T06:15:02.142Z,3.3
2018-03-29T06:16:03.837Z,3.4
2018-03-29T06:17:05.446Z,3.4
2018-03-29T06:18:07.156Z,3.6
2018-03-29T06:19:08.811Z,3.6
2018-03-29T06:20:10.504Z,3.6
2018-03-29T06:21:12.162Z,3.7
2018-03-29T06:22:13.813Z,3.8
2018-03-29T06:23:15.548Z,3.7
2018-03-29T06:24:17.130Z,3.6
2018-03-29T06:25:18.790Z,3.7
2018-03-29T06:26:20.445Z,3.6
2018-03-29T06:27:22.104Z,3.6
2018-03-29T06:28:23.761Z,3.7
2018-03-29T06:29:25.469Z,3.7
2018-03-29T06:30:27.125Z,3.6
2018-03-29T06:31:28.779Z,3.6
2018-03-29T06:32:30.472Z,3.6
2018-03-29T06:33:32.144Z,3.6
2018-03-29T06:34:33.808Z,3.7
2018-03-29T06:35:35.465Z,3.6
2018-03-29T06:36:37.118Z,3.7
2018-03-29T06:37:38.773Z,3.7
2018-03-29T06:38:40.433Z,3.7
2018-03-29T06:39:42.077Z,3.7
2018-03-29T06:40:43.738Z,3.7
2018-03-29T06:41:45.389Z,3.6
2018-03-29T06:42:47.043Z,3.7
2018-03-29T06:43:48.702Z,3.7
2018-03-29T06:44:51.315Z,3.7
2018-03-29T06:45:52.963Z,3.6
2018-03-29T06:46:54.630Z,3.7
2018-03-29T06:47:56.277Z,3.7
2018-03-29T06:48:57.932Z,3.7
2018-03-29T06:49:59.582Z,3.8
2018-03-29T06:51:01.242Z,3.8
2018-03-29T06:52:02.913Z,3.8
2018-03-29T06:53:04.566Z,4.0
2018-03-29T06:54:06.228Z,4.1
2018-03-29T06:55:07.874Z,4.1
2018-03-29T06:56:09.532Z,4.3
2018-03-29T06:57:11.194Z,4.4
2018-03-29T06:58:12.854Z,4.5
2018-03-29T06:59:14.497Z,4.5
2018-03-29T07:00:16.154Z,4.7
2018-03-29T07:01:17.815Z,4.7
2018-03-29T07:02:19.465Z,4.5
2018-03-29T07:03:21.124Z,4.5
2018-03-29T07:04:22.778Z,4.7
2018-03-29T07:05:24.445Z,4.7
2018-03-29T07:06:26.131Z,4.7
2018-03-29T07:07:27.791Z,4.7
2018-03-29T07:08:29.434Z,4.7
2018-03-29T07:09:31.084Z,4.6
2018-03-29T07:10:32.737Z,4.6
2018-03-29T07:11:34.401Z,4.6
2018-03-29T07:12:36.069Z,4.7
2018-03-29T07:13:37.720Z,4.7
2018-03-29T07:14:39.385Z,4.8
2018-03-29T07:15:41.038Z,5.0
2018-03-29T07:16:42.698Z,4.9
2018-03-29T07:17:44.354Z,5.0
2018-03-29T07:18:46.016Z,5.0
2018-03-29T07:19:47.716Z,5.0
2018-03-29T07:20:49.369Z,5.0
2018-03-29T07:21:51.041Z,5.0
2018-03-29T07:22:52.690Z,5.0
2018-03-29T07:23:54.342Z,5.0
2018-03-29T07:24:56.010Z,4.9
2018-03-29T07:25:57.662Z,4.8
2018-03-29T07:27:00.171Z,4.8
2018-03-29T07:28:01.834Z,4.7
2018-03-29T07:29:03.494Z,4.7
2018-03-29T07:30:05.167Z,4.5
2018-03-29T07:31:06.817Z,4.6
2018-03-29T07:32:08.480Z,4.5
2018-03-29T07:33:10.159Z,4.6
2018-03-29T07:34:11.812Z,4.5
2018-03-29T07:35:13.474Z,4.6
2018-03-29T07:36:15.129Z,4.7
2018-03-29T07:37:16.780Z,4.7
2018-03-29T07:38:18.439Z,4.8
2018-03-29T07:39:20.091Z,4.9
2018-03-29T07:40:21.744Z,4.7
2018-03-29T07:41:23.404Z,4.9
2018-03-29T07:42:25.061Z,5.0
2018-03-29T07:43:26.719Z,5.1
2018-03-29T07:44:28.375Z,5.2
2018-03-29T07:45:30.028Z,5.3
2018-03-29T07:46:31.723Z,5.3
2018-03-29T07:47:33.392Z,5.4
2018-03-29T07:48:35.039Z,5.6
2018-03-29T07:49:36.696Z,5.7
2018-03-29T07:50:38.375Z,6.0
2018-03-29T07:51:40.038Z,6.3
2018-03-29T07:52:41.711Z,7.1
2018-03-29T07:53:43.415Z,7.9
2018-03-29T07:54:45.037Z,8.4
2018-03-29T07:55:46.695Z,8.0
2018-03-29T07:56:48.372Z,7.6
2018-03-29T07:57:50.024Z,7.2
2018-03-29T07:58:51.680Z,7.0
2018-03-29T07:59:53.333Z,6.8
2018-03-29T08:00:54.994Z,6.6
2018-03-29T08:01:56.657Z,6.6
2018-03-29T08:02:58.361Z,6.6
2018-03-29T08:04:00.026Z,6.1
2018-03-29T08:05:01.681Z,6.1
2018-03-29T08:06:03.353Z,5.9
2018-03-29T08:07:05.006Z,6.1
2018-03-29T08:08:06.659Z,6.1
2018-03-29T08:09:08.320Z,6.3
2018-03-29T08:10:09.986Z,6.5
2018-03-29T08:11:11.637Z,6.6
2018-03-29T08:12:13.305Z,6.7
2018-03-29T08:13:15.007Z,6.7
2018-03-29T08:14:16.667Z,6.6
2018-03-29T08:15:18.318Z,6.6
2018-03-29T08:16:20.288Z,6.8
2018-03-29T08:17:21.937Z,6.9
2018-03-29T08:18:23.595Z,6.7
2018-03-29T08:19:25.264Z,6.4
2018-03-29T08:20:26.919Z,6.2
2018-03-29T08:21:28.563Z,6.1
2018-03-29T08:22:30.255Z,6.0
2018-03-29T08:23:31.909Z,6.0
2018-03-29T08:24:33.585Z,5.9
2018-03-29T08:25:39.999Z,5.6
2018-03-29T08:26:41.653Z,5.4
2018-03-29T08:27:43.309Z,5.4
2018-03-29T08:28:44.962Z,5.2
2018-03-29T08:29:48.448Z,5.0
2018-03-29T08:30:50.110Z,5.0
2018-03-29T08:31:51.761Z,4.8
2018-03-29T08:32:53.439Z,4.7
2018-03-29T08:33:55.093Z,4.7
2018-03-29T08:34:56.745Z,4.6
2018-03-29T08:35:58.402Z,4.6
2018-03-29T08:37:00.070Z,4.7
2018-03-29T08:38:01.718Z,4.5
2018-03-29T08:39:03.378Z,4.5
2018-03-29T08:40:05.032Z,4.4
2018-03-29T08:41:06.693Z,4.3
2018-03-29T08:42:08.345Z,4.2
2018-03-29T08:43:10.000Z,4.3
2018-03-29T08:44:11.660Z,4.1
2018-03-29T08:45:13.392Z,4.1
2018-03-29T08:46:15.054Z,4.1
2018-03-29T08:47:16.730Z,4.1
2018-03-29T08:48:18.378Z,4.1
2018-03-29T08:49:20.028Z,4.0
2018-03-29T08:50:21.697Z,4.0
2018-03-29T08:51:23.347Z,3.9
2018-03-29T08:52:25.007Z,3.9
2018-03-29T08:53:26.662Z,4.0
2018-03-29T08:54:28.373Z,4.0
2018-03-29T08:55:30.020Z,4.0
2018-03-29T08:56:31.677Z,4.0
2018-03-29T08:57:33.343Z,4.0
2018-03-29T08:58:34.996Z,4.0
2018-03-29T08:59:36.659Z,4.1
2018-03-29T09:00:38.353Z,4.1
2018-03-29T09:01:40.015Z,4.1
2018-03-29T09:02:41.868Z,4.2
2018-03-29T09:03:43.531Z,4.2
2018-03-29T09:04:45.169Z,4.1
2018-03-29T09:05:46.858Z,4.2
2018-03-29T09:06:48.572Z,4.3
2018-03-29T09:07:50.230Z,4.3
2018-03-29T09:08:51.913Z,4.3
2018-03-29T09:09:53.568Z,4.3
2018-03-29T09:10:55.229Z,4.5
2018-03-29T09:11:56.882Z,4.5
2018-03-29T09:12:58.687Z,4.6
2018-03-29T09:14:00.348Z,4.8
2018-03-29T09:15:02.005Z,5.0
2018-03-29T09:16:03.671Z,5.1
2018-03-29T09:17:05.332Z,5.2
2018-03-29T09:18:07.010Z,5.3
2018-03-29T09:19:08.653Z,5.4
2018-03-29T09:20:10.319Z,5.3
2018-03-29T09:21:11.970Z,5.3
2018-03-29T09:22:13.636Z,5.5
2018-03-29T09:23:15.309Z,5.6
2018-03-29T09:24:16.966Z,5.8
2018-03-29T09:25:18.627Z,6.2
2018-03-29T09:26:20.284Z,6.1
2018-03-29T09:27:21.949Z,6.5
2018-03-29T09:28:23.731Z,6.7
2018-03-29T09:29:25.389Z,6.8
2018-03-29T09:30:27.052Z,7.0
2018-03-29T09:31:28.717Z,7.2
2018-03-29T09:32:30.379Z,7.2
2018-03-29T09:33:32.055Z,7.4
2018-03-29T09:34:33.715Z,7.4
2018-03-29T09:35:35.369Z,7.5
2018-03-29T09:36:37.032Z,7.5
2018-03-29T09:37:38.686Z,7.3
2018-03-29T09:38:40.396Z,7.3
2018-03-29T09:39:42.050Z,7.2
2018-03-29T09:40:43.716Z,7.0
2018-03-29T09:41:45.375Z,6.7
2018-03-29T09:42:47.045Z,6.9
2018-03-29T09:43:48.718Z,6.9
2018-03-29T09:44:50.363Z,6.9
2018-03-29T09:45:52.023Z,6.9
2018-03-29T09:46:53.681Z,6.8
2018-03-29T09:47:55.346Z,6.8
2018-03-29T09:48:57.017Z,7.0
2018-03-29T09:49:58.742Z,7.0
2018-03-29T09:51:00.396Z,6.8
2018-03-29T09:52:02.073Z,6.7
2018-03-29T09:53:03.726Z,6.7
2018-03-29T09:54:05.391Z,6.6
2018-03-29T09:55:07.046Z,6.6
2018-03-29T10:01:18.659Z,7.0
2018-03-29T10:02:20.316Z,6.9
2018-03-29T10:04:12.199Z,6.7
2018-03-29T10:05:13.850Z,6.6
2018-03-29T10:06:15.513Z,6.6
2018-03-29T10:07:17.174Z,6.6
2018-03-29T10:08:18.829Z,6.6
2018-03-29T10:09:20.497Z,6.6
2018-03-29T10:10:22.198Z,6.4
2018-03-29T10:11:23.841Z,6.4
2018-03-29T10:12:25.511Z,6.4
2018-03-29T10:13:27.160Z,6.2
2018-03-29T10:14:28.844Z,6.3
2018-03-29T10:15:30.502Z,6.2
2018-03-29T10:16:32.160Z,6.2
2018-03-29T10:17:34.214Z,6.0
2018-03-29T10:18:35.906Z,6.2
2018-03-29T10:19:37.560Z,6.1
2018-03-29T10:20:39.226Z,6.1
2018-03-29T10:21:40.890Z,6.1
2018-03-29T10:22:42.536Z,6.1
2018-03-29T10:23:44.188Z,6.1
2018-03-29T10:24:45.908Z,6.0
2018-03-29T10:25:47.569Z,6.2
2018-03-29T10:26:49.219Z,6.3
2018-03-29T10:27:50.873Z,6.5
2018-03-29T10:28:52.677Z,6.7
2018-03-29T10:29:54.338Z,6.9
2018-03-29T10:30:56.015Z,7.1
2018-03-29T10:31:57.683Z,7.3
2018-03-29T10:32:59.348Z,7.4
2018-03-29T10:34:01.019Z,7.6
2018-03-29T10:35:02.679Z,7.7
2018-03-29T10:36:04.332Z,7.3
2018-03-29T10:37:05.986Z,7.2
2018-03-29T10:38:07.637Z,7.1
2018-03-29T10:39:09.310Z,6.9
2018-03-29T10:40:10.967Z,6.7
2018-03-29T10:41:12.637Z,6.9
2018-03-29T10:42:14.288Z,7.1
2018-03-29T10:43:15.947Z,7.1
2018-03-29T10:44:17.607Z,7.4
2018-03-29T10:45:19.273Z,7.4
2018-03-29T10:46:20.930Z,7.4
2018-03-29T10:47:22.588Z,7.5
2018-03-29T10:48:24.258Z,7.5
2018-03-29T10:49:25.937Z,7.6
2018-03-29T10:50:27.594Z,7.5
2018-03-29T10:51:29.264Z,7.2
2018-03-29T10:52:30.936Z,7.2
2018-03-29T10:53:32.591Z,7.0
2018-03-29T10:54:34.271Z,6.8
2018-03-29T10:55:35.946Z,6.8
2018-03-29T10:56:37.610Z,6.8
2018-03-29T10:57:39.263Z,6.8
2018-03-29T10:58:40.929Z,6.9
2018-03-29T10:59:42.586Z,7.1
2018-03-29T11:00:44.258Z,7.1
2018-03-29T11:01:48.422Z,7.2
2018-03-29T11:02:54.003Z,6.9
2018-03-29T11:03:55.509Z,6.8
2018-03-29T11:04:57.167Z,6.8
2018-03-29T11:05:58.824Z,7.1
2018-03-29T11:07:00.486Z,7.1
2018-03-29T11:08:02.142Z,7.2
2018-03-29T11:09:03.931Z,7.2
2018-03-29T11:10:05.602Z,7.2
2018-03-29T11:11:07.284Z,7.2
2018-03-29T11:12:08.951Z,7.3
2018-03-29T11:13:10.611Z,7.2
2018-03-29T11:14:12.271Z,7.2
2018-03-29T11:15:13.937Z,7.1
2018-03-29T11:16:15.589Z,7.0
2018-03-29T11:17:20.332Z,7.1
2018-03-29T11:18:21.768Z,7.2
2018-03-29T11:19:23.424Z,7.3
2018-03-29T11:20:25.086Z,7.4
2018-03-29T11:21:26.744Z,7.4
2018-03-29T11:22:28.419Z,7.5
2018-03-29T11:23:30.089Z,7.6
2018-03-29T11:24:31.800Z,7.4
2018-03-29T11:25:33.467Z,7.5
2018-03-29T11:26:35.133Z,7.4
2018-03-29T11:27:36.793Z,7.5
2018-03-29T11:28:38.454Z,7.6
2018-03-29T11:29:40.186Z,7.6
2018-03-29T11:30:41.855Z,7.6
2018-03-29T11:31:43.504Z,7.6
2018-03-29T11:32:45.172Z,7.5
2018-03-29T11:33:46.840Z,7.5
2018-03-29T11:34:48.503Z,7.4
2018-03-29T11:35:50.171Z,7.7
2018-03-29T11:36:51.831Z,7.4
2018-03-29T11:37:53.489Z,7.5
2018-03-29T11:38:55.174Z,7.6
2018-03-29T11:39:56.833Z,7.3
2018-03-29T11:40:58.498Z,7.2
2018-03-29T11:42:00.181Z,7.3
2018-03-29T11:43:01.835Z,7.2
2018-03-29T11:44:03.504Z,7.4
2018-03-29T11:45:05.167Z,7.3
2018-03-29T11:46:06.842Z,7.5
2018-03-29T11:47:08.502Z,7.6
2018-03-29T11:48:10.412Z,7.5
2018-03-29T11:49:12.075Z,7.4
2018-03-29T11:50:13.737Z,7.3
2018-03-29T11:51:15.443Z,7.3
2018-03-29T11:52:17.103Z,7.2
2018-03-29T11:53:18.785Z,7.2
2018-03-29T11:54:20.459Z,7.3
2018-03-29T11:55:22.130Z,7.4
2018-03-29T11:56:23.804Z,7.5
2018-03-29T11:57:25.469Z,7.7
2018-03-29T11:58:27.121Z,7.6
2018-03-29T11:59:28.794Z,7.7
2018-03-29T12:00:30.458Z,7.6
2018-03-29T12:01:32.116Z,7.5
2018-03-29T12:02:33.795Z,7.8
2018-03-29T12:03:35.464Z,8.2
2018-03-29T12:04:37.116Z,8.7
2018-03-29T12:05:38.815Z,9.5
2018-03-29T12:06:40.474Z,9.9
2018-03-29T12:07:43.571Z,9.9
2018-03-29T12:08:46.664Z,9.7
2018-03-29T12:09:48.287Z,10.6
2018-03-29T12:10:49.966Z,12.3
2018-03-29T12:11:51.659Z,12.1
2018-03-29T12:12:53.342Z,13.0
2018-03-29T12:13:55.017Z,13.4
2018-03-29T12:14:56.691Z,14.0
2018-03-29T12:15:58.363Z,14.5
2018-03-29T12:17:00.039Z,14.5
2018-03-29T12:18:02.040Z,14.5
2018-03-29T12:19:03.830Z,14.3
2018-03-29T12:20:05.662Z,13.9
2018-03-29T12:21:07.337Z,13.5
2018-03-29T12:22:09.054Z,12.3
2018-03-29T12:23:10.731Z,11.5
2018-03-29T12:24:12.407Z,11.3
2018-03-29T12:25:14.068Z,11.0
2018-03-29T12:26:15.748Z,10.4
2018-03-29T12:27:17.424Z,9.8
2018-03-29T12:28:19.093Z,9.9
2018-03-29T12:29:20.764Z,9.4
2018-03-29T12:30:22.447Z,8.7
2018-03-29T12:31:24.104Z,8.5
2018-03-29T12:32:25.777Z,8.4
2018-03-29T12:33:27.437Z,8.3
2018-03-29T12:34:29.104Z,8.3
2018-03-29T12:35:30.802Z,7.3
2018-03-29T12:36:32.537Z,6.4
2018-03-29T12:37:34.390Z,5.4
2018-03-29T12:38:36.156Z,4.7
2018-03-29T12:39:37.877Z,4.3
2018-03-29T12:40:39.739Z,4.3
2018-03-29T12:41:41.557Z,4.1
2018-03-29T12:42:43.213Z,3.9
2018-03-29T12:43:44.895Z,4.0
2018-03-29T12:44:47.020Z,4.0
2018-03-29T12:45:48.760Z,4.4
2018-03-29T12:46:50.531Z,4.7
2018-03-29T12:47:52.229Z,5.2
2018-03-29T12:48:53.924Z,5.5
2018-03-29T12:49:55.581Z,5.8
2018-03-29T12:50:57.300Z,5.9
2018-03-29T12:51:58.971Z,5.7
2018-03-29T12:53:00.662Z,6.3
2018-03-29T12:54:02.317Z,6.6
2018-03-29T12:55:04.038Z,7.2
2018-03-29T12:56:05.776Z,7.7
2018-03-29T12:57:07.468Z,7.8
2018-03-29T12:58:09.167Z,7.8
2018-03-29T12:59:10.859Z,7.8
2018-03-29T13:00:12.717Z,7.9
2018-03-29T13:01:14.339Z,7.7
2018-03-29T13:02:16.009Z,7.6
2018-03-29T13:03:17.670Z,7.8
2018-03-29T13:04:19.388Z,8.4
2018-03-29T13:05:21.055Z,8.9
2018-03-29T13:06:22.772Z,9.6
2018-03-29T13:07:24.553Z,10.4
2018-03-29T13:08:26.249Z,10.5
2018-03-29T13:09:27.950Z,11.1
2018-03-29T13:10:29.673Z,11.3
2018-03-29T13:11:31.532Z,11.7
2018-03-29T13:12:33.339Z,12.0
2018-03-29T13:13:35.014Z,11.8
2018-03-29T13:14:36.707Z,11.4
2018-03-29T13:15:38.357Z,11.1
2018-03-29T13:16:40.272Z,10.6
2018-03-29T13:17:41.950Z,10.3
2018-03-29T13:18:43.619Z,10.0
2018-03-29T13:19:45.412Z,9.7
2018-03-29T13:20:47.086Z,9.5
2018-03-29T13:21:48.760Z,8.9
2018-03-29T13:22:50.421Z,8.8
2018-03-29T13:23:52.163Z,8.8
2018-03-29T13:24:53.902Z,8.8
2018-03-29T13:25:55.566Z,8.6
2018-03-29T13:26:57.219Z,8.4
2018-03-29T13:27:58.889Z,8.4
2018-03-29T13:29:00.553Z,8.2
2018-03-29T13:30:02.233Z,8.0
2018-03-29T13:31:03.891Z,7.7
2018-03-29T13:32:05.569Z,7.5
2018-03-29T13:33:07.229Z,7.3
2018-03-29T13:34:08.894Z,7.2
2018-03-29T13:35:10.569Z,7.0
2018-03-29T13:36:12.224Z,6.9
2018-03-29T13:37:13.933Z,6.8
2018-03-29T13:38:15.586Z,6.2
2018-03-29T13:39:17.242Z,6.0
2018-03-29T13:40:18.962Z,5.6
2018-03-29T13:41:20.654Z,5.5
2018-03-29T13:42:22.341Z,5.4
2018-03-29T13:43:24.030Z,5.2
2018-03-29T13:44:25.666Z,4.9
2018-03-29T13:45:27.325Z,4.8
2018-03-29T13:46:28.983Z,4.7
2018-03-29T13:47:30.643Z,4.7
2018-03-29T13:48:32.380Z,4.5
2018-03-29T13:49:34.047Z,4.8
2018-03-29T13:50:35.721Z,5.3
2018-03-29T13:51:37.373Z,6.1
2018-03-29T13:52:39.094Z,6.8
2018-03-29T13:53:40.754Z,7.7
2018-03-29T13:54:42.418Z,8.4
2018-03-29T13:55:44.077Z,8.7
2018-03-29T14:02:08.663Z,8.7
2018-03-29T14:03:10.306Z,8.7
2018-03-29T14:04:11.968Z,8.6
2018-03-29T14:05:13.645Z,8.6
2018-03-29T14:06:15.303Z,8.8
2018-03-29T14:07:16.969Z,8.3
2018-03-29T14:08:19.323Z,8.1
2018-03-29T14:09:21.018Z,8.6
2018-03-29T14:10:22.963Z,8.7
2018-03-29T14:11:24.617Z,9.4
2018-03-29T14:12:26.341Z,9.7
2018-03-29T14:13:28.176Z,9.6
2018-03-29T14:14:29.832Z,10.0
2018-03-29T14:15:31.524Z,10.5
2018-03-29T14:16:33.236Z,10.7
2018-03-29T14:17:35.888Z,10.7
2018-03-29T14:18:37.548Z,10.5
2018-03-29T14:19:39.234Z,10.3
2018-03-29T14:20:40.914Z,9.8
2018-03-29T14:21:42.605Z,9.9
2018-03-29T14:22:44.446Z,10.4
2018-03-29T14:23:46.147Z,10.1
2018-03-29T14:24:47.812Z,10.3
2018-03-29T14:25:49.468Z,10.5
2018-03-29T14:26:51.191Z,10.7
2018-03-29T14:27:52.966Z,10.8
2018-03-29T14:28:54.871Z,10.7
2018-03-29T14:29:56.857Z,9.8
2018-03-29T14:30:58.571Z,9.9
2018-03-29T14:32:00.233Z,8.9